Ely, MN

12:40 PM CDT on September 21, 2014 (GMT -0500)
Crane Lake | Change Station
CLOSE
Current Station
Airport
Location: Crane Lake,
Elevation: 1119 ft
Nearby Weather Stations

Elev 1119 ft 48.27 °N, 92.48 °W | Updated 10 minutes ago

Clear
Clear
54 °F
Feels Like 54 °F
N
4
Wind Variable Wind from North

Today
High -- | Low -- °F
--% Chance of Precip.
Yesterday
High -- | Low -- °F
Precip. -- in
6:52 AM 7:07 PM
Waning Crescent, 6% visible
Pressure 30.17 in
Visibility 10.0 miles
Clouds Clear
Dew Point 41 °F
Humidity 62%
Rainfall 0.00 in
Snow Depth Not available.
UV 6 out of 12
Pollen .60 out of 12
Air Quality Not available.
Flu Activity Not available.
METAR KCDD 211730Z AUTO 01003KT 10SM CLR 12/05 A3017 RMK AO2

More Conditions Fewer Conditions

Pressure 30.17 in
Visibility 10.0 miles
Clouds Clear
Dew Point 41 °F
Humidity 62%
Rainfall 0.00 in
Snow Depth Not available.
UV 6 out of 12
Pollen .60 out of 12
Air Quality Not available.
Flu Activity Not available.
METAR KCDD 211730Z AUTO 01003KT 10SM CLR 12/05 A3017 RMK AO2

More Conditions Fewer Conditions

10-Day Weather Forecast

Almanac

Astronomy

Sep. 21, 2014 Rise Set
Actual Time 6:52 AM CDT 7:07 PM CDT
Civil Twilight 6:21 AM CDT 7:38 PM CDT
Nautical Twilight 5:45 AM CDT 8:14 PM CDT
Astronomical Twilight 5:07 AM CDT 8:52 PM CDT
Moon 4:18 AM CDT 5:49 PM CDT
Length of Visible Light 13h 16m
Length of Day
12h 14m
Tomorrow will be 3m 26s shorter.
Waning Crescent, 6% of the Moon is Illuminated
Today
Waning Crescent
Sep 24
New
Oct 1
First Quarter
Oct 8
Full
Oct 15
Last Quarter

Today's Extremes

State Highs State Lows

Community

WunderPhotos

Upload Photos

1,755,199 photos uploaded!

WunderBlogs® & News

Nearby

Snow Depth

Station Depth Elevation
No new snow has been reported.

Earthquake Activity

City Distance Mag. Time & Date
No recent earthquake activity has been reported nearby.
Minimum magnitude displayed is 2.5.

Coastal Water Temperatures

Place Temperature
No Stations Reporting

Nearby Weather Stations